sensor_id;sensor_type;location;lat;lon;timestamp;P1;durP1;ratioP1;P2;durP2;ratioP2
67768;SDS011;54569;52.018;5.584;2023-02-11T00:00:14;17.02;;;6.60;;
67768;SDS011;54569;52.018;5.584;2023-02-11T00:02:41;10.70;;;4.90;;
67768;SDS011;54569;52.018;5.584;2023-02-11T00:05:07;15.63;;;5.70;;
67768;SDS011;54569;52.018;5.584;2023-02-11T00:07:33;14.85;;;6.20;;
67768;SDS011;54569;52.018;5.584;2023-02-11T00:09:59;15.27;;;5.78;;
67768;SDS011;54569;52.018;5.584;2023-02-11T00:12:27;18.45;;;5.50;;
67768;SDS011;54569;52.018;5.584;2023-02-11T00:14:53;15.50;;;5.97;;
67768;SDS011;54569;52.018;5.584;2023-02-11T00:17:18;13.02;;;5.85;;
67768;SDS011;54569;52.018;5.584;2023-02-11T00:19:47;16.95;;;5.78;;
67768;SDS011;54569;52.018;5.584;2023-02-11T00:22:14;14.95;;;6.38;;
67768;SDS011;54569;52.018;5.584;2023-02-11T00:24:40;13.13;;;5.50;;
67768;SDS011;54569;52.018;5.584;2023-02-11T00:27:05;17.65;;;6.15;;
67768;SDS011;54569;52.018;5.584;2023-02-11T00:29:31;16.27;;;5.55;;
67768;SDS011;54569;52.018;5.584;2023-02-11T00:31:57;12.48;;;5.57;;
67768;SDS011;54569;52.018;5.584;2023-02-11T00:34:22;17.63;;;5.43;;
67768;SDS011;54569;52.018;5.584;2023-02-11T00:36:48;16.30;;;5.78;;
67768;SDS011;54569;52.018;5.584;2023-02-11T00:39:14;16.20;;;5.30;;
67768;SDS011;54569;52.018;5.584;2023-02-11T00:41:40;16.52;;;6.10;;
67768;SDS011;54569;52.018;5.584;2023-02-11T00:44:05;14.65;;;5.80;;
67768;SDS011;54569;52.018;5.584;2023-02-11T00:46:31;15.23;;;5.45;;
67768;SDS011;54569;52.018;5.584;2023-02-11T00:48:57;13.18;;;5.80;;
67768;SDS011;54569;52.018;5.584;2023-02-11T00:51:23;16.17;;;5.68;;
67768;SDS011;54569;52.018;5.584;2023-02-11T00:53:50;15.80;;;5.68;;
67768;SDS011;54569;52.018;5.584;2023-02-11T00:56:16;15.57;;;6.05;;
67768;SDS011;54569;52.018;5.584;2023-02-11T00:58:41;17.00;;;5.15;;
67768;SDS011;54569;52.018;5.584;2023-02-11T01:01:08;11.82;;;5.90;;
67768;SDS011;54569;52.018;5.584;2023-02-11T01:03:34;16.23;;;5.97;;
67768;SDS011;54569;52.018;5.584;2023-02-11T01:06:00;10.48;;;4.78;;
67768;SDS011;54569;52.018;5.584;2023-02-11T01:08:26;14.73;;;5.07;;
67768;SDS011;54569;52.018;5.584;2023-02-11T01:10:59;12.25;;;4.93;;
67768;SDS011;54569;52.018;5.584;2023-02-11T01:13:27;15.68;;;5.63;;
67768;SDS011;54569;52.018;5.584;2023-02-11T01:15:54;17.73;;;4.97;;
67768;SDS011;54569;52.018;5.584;2023-02-11T01:18:20;15.95;;;5.03;;
67768;SDS011;54569;52.018;5.584;2023-02-11T01:20:47;17.60;;;5.10;;
67768;SDS011;54569;52.018;5.584;2023-02-11T01:23:13;15.10;;;5.05;;
67768;SDS011;54569;52.018;5.584;2023-02-11T01:25:38;14.52;;;4.63;;
67768;SDS011;54569;52.018;5.584;2023-02-11T01:28:04;17.55;;;4.75;;
67768;SDS011;54569;52.018;5.584;2023-02-11T01:30:30;18.00;;;5.30;;
67768;SDS011;54569;52.018;5.584;2023-02-11T01:32:55;16.30;;;4.70;;
67768;SDS011;54569;52.018;5.584;2023-02-11T01:35:21;14.63;;;5.72;;
67768;SDS011;54569;52.018;5.584;2023-02-11T01:37:47;14.07;;;4.53;;
67768;SDS011;54569;52.018;5.584;2023-02-11T01:40:13;14.77;;;5.13;;
67768;SDS011;54569;52.018;5.584;2023-02-11T01:42:41;15.48;;;5.18;;
67768;SDS011;54569;52.018;5.584;2023-02-11T01:48:29;18.88;;;5.22;;
67768;SDS011;54569;52.018;5.584;2023-02-11T01:51:15;11.15;;;5.43;;
67768;SDS011;54569;52.018;5.584;2023-02-11T01:53:46;12.57;;;5.03;;
67768;SDS011;54569;52.018;5.584;2023-02-11T01:56:32;12.32;;;4.90;;
67768;SDS011;54569;52.018;5.584;2023-02-11T01:59:26;14.35;;;4.97;;
67768;SDS011;54569;52.018;5.584;2023-02-11T02:01:57;17.27;;;5.20;;
67768;SDS011;54569;52.018;5.584;2023-02-11T02:04:28;11.85;;;4.88;;
67768;SDS011;54569;52.018;5.584;2023-02-11T02:07:07;12.57;;;5.13;;
67768;SDS011;54569;52.018;5.584;2023-02-11T02:09:39;17.40;;;4.90;;
67768;SDS011;54569;52.018;5.584;2023-02-11T02:12:08;14.90;;;5.00;;
67768;SDS011;54569;52.018;5.584;2023-02-11T02:14:38;14.13;;;5.03;;
67768;SDS011;54569;52.018;5.584;2023-02-11T02:17:04;15.75;;;5.20;;
67768;SDS011;54569;52.018;5.584;2023-02-11T02:27:45;14.02;;;4.20;;
67768;SDS011;54569;52.018;5.584;2023-02-11T02:35:47;16.15;;;5.60;;
67768;SDS011;54569;52.018;5.584;2023-02-11T02:43:30;14.55;;;5.35;;
67768;SDS011;54569;52.018;5.584;2023-02-11T02:48:57;17.60;;;5.88;;
67768;SDS011;54569;52.018;5.584;2023-02-11T02:56:53;13.65;;;5.30;;
67768;SDS011;54569;52.018;5.584;2023-02-11T02:59:33;14.60;;;5.50;;
67768;SDS011;54569;52.018;5.584;2023-02-11T03:02:30;16.70;;;5.55;;
67768;SDS011;54569;52.018;5.584;2023-02-11T03:05:15;15.80;;;5.40;;
67768;SDS011;54569;52.018;5.584;2023-02-11T03:10:57;19.00;;;5.45;;
67768;SDS011;54569;52.018;5.584;2023-02-11T03:13:26;15.18;;;5.30;;
67768;SDS011;54569;52.018;5.584;2023-02-11T03:15:57;15.05;;;5.70;;
67768;SDS011;54569;52.018;5.584;2023-02-11T03:18:38;17.83;;;5.53;;
67768;SDS011;54569;52.018;5.584;2023-02-11T03:21:07;18.00;;;6.60;;
67768;SDS011;54569;52.018;5.584;2023-02-11T03:23:43;15.95;;;6.43;;
67768;SDS011;54569;52.018;5.584;2023-02-11T03:26:20;18.38;;;6.57;;
67768;SDS011;54569;52.018;5.584;2023-02-11T03:28:53;17.95;;;6.50;;
67768;SDS011;54569;52.018;5.584;2023-02-11T03:31:36;12.43;;;6.82;;
67768;SDS011;54569;52.018;5.584;2023-02-11T03:34:10;16.30;;;6.10;;
67768;SDS011;54569;52.018;5.584;2023-02-11T03:36:45;18.23;;;6.15;;
67768;SDS011;54569;52.018;5.584;2023-02-11T03:39:21;18.75;;;6.43;;
67768;SDS011;54569;52.018;5.584;2023-02-11T03:41:53;17.67;;;7.03;;
67768;SDS011;54569;52.018;5.584;2023-02-11T03:44:20;18.85;;;7.45;;
67768;SDS011;54569;52.018;5.584;2023-02-11T03:46:49;19.27;;;7.03;;
67768;SDS011;54569;52.018;5.584;2023-02-11T03:49:17;19.10;;;7.82;;
67768;SDS011;54569;52.018;5.584;2023-02-11T03:51:44;17.92;;;7.50;;
67768;SDS011;54569;52.018;5.584;2023-02-11T03:54:13;16.52;;;7.30;;
67768;SDS011;54569;52.018;5.584;2023-02-11T03:56:52;16.98;;;7.53;;
67768;SDS011;54569;52.018;5.584;2023-02-11T03:59:20;17.45;;;7.60;;
67768;SDS011;54569;52.018;5.584;2023-02-11T04:01:46;17.77;;;7.05;;
67768;SDS011;54569;52.018;5.584;2023-02-11T04:04:12;20.35;;;6.88;;
67768;SDS011;54569;52.018;5.584;2023-02-11T04:06:38;16.08;;;7.47;;
67768;SDS011;54569;52.018;5.584;2023-02-11T04:09:03;16.48;;;7.60;;
67768;SDS011;54569;52.018;5.584;2023-02-11T04:11:29;21.17;;;8.07;;
67768;SDS011;54569;52.018;5.584;2023-02-11T04:13:55;15.48;;;7.88;;
67768;SDS011;54569;52.018;5.584;2023-02-11T04:16:21;18.73;;;8.00;;
67768;SDS011;54569;52.018;5.584;2023-02-11T04:18:46;20.85;;;7.90;;
67768;SDS011;54569;52.018;5.584;2023-02-11T04:21:12;18.55;;;8.13;;
67768;SDS011;54569;52.018;5.584;2023-02-11T04:23:38;21.83;;;7.80;;
67768;SDS011;54569;52.018;5.584;2023-02-11T04:26:04;15.60;;;8.98;;
67768;SDS011;54569;52.018;5.584;2023-02-11T04:28:30;25.20;;;8.32;;
67768;SDS011;54569;52.018;5.584;2023-02-11T04:30:56;17.30;;;8.73;;
67768;SDS011;54569;52.018;5.584;2023-02-11T04:33:22;22.13;;;8.68;;
67768;SDS011;54569;52.018;5.584;2023-02-11T04:35:48;18.58;;;8.93;;
67768;SDS011;54569;52.018;5.584;2023-02-11T04:38:14;16.90;;;7.75;;
67768;SDS011;54569;52.018;5.584;2023-02-11T04:40:40;21.05;;;8.68;;
67768;SDS011;54569;52.018;5.584;2023-02-11T04:43:06;18.77;;;8.82;;
67768;SDS011;54569;52.018;5.584;2023-02-11T04:45:32;16.15;;;8.18;;
67768;SDS011;54569;52.018;5.584;2023-02-11T04:47:57;18.05;;;8.32;;
67768;SDS011;54569;52.018;5.584;2023-02-11T04:50:23;19.10;;;8.55;;
67768;SDS011;54569;52.018;5.584;2023-02-11T04:52:49;17.98;;;8.43;;
67768;SDS011;54569;52.018;5.584;2023-02-11T04:55:14;22.90;;;9.18;;
67768;SDS011;54569;52.018;5.584;2023-02-11T04:57:40;23.77;;;9.27;;
67768;SDS011;54569;52.018;5.584;2023-02-11T05:00:06;19.42;;;8.80;;
67768;SDS011;54569;52.018;5.584;2023-02-11T05:02:34;17.65;;;9.50;;
67768;SDS011;54569;52.018;5.584;2023-02-11T05:04:59;28.67;;;9.60;;
67768;SDS011;54569;52.018;5.584;2023-02-11T05:07:25;21.60;;;9.32;;
67768;SDS011;54569;52.018;5.584;2023-02-11T05:09:51;19.45;;;9.65;;
67768;SDS011;54569;52.018;5.584;2023-02-11T05:12:17;18.35;;;8.95;;
67768;SDS011;54569;52.018;5.584;2023-02-11T05:14:42;22.65;;;9.70;;
67768;SDS011;54569;52.018;5.584;2023-02-11T05:17:08;21.17;;;9.10;;
67768;SDS011;54569;52.018;5.584;2023-02-11T05:19:34;21.08;;;9.07;;
67768;SDS011;54569;52.018;5.584;2023-02-11T05:21:59;20.13;;;9.73;;
67768;SDS011;54569;52.018;5.584;2023-02-11T05:24:25;18.02;;;9.32;;
67768;SDS011;54569;52.018;5.584;2023-02-11T05:26:51;21.35;;;9.30;;
67768;SDS011;54569;52.018;5.584;2023-02-11T05:29:16;19.42;;;9.43;;
67768;SDS011;54569;52.018;5.584;2023-02-11T05:31:42;23.48;;;10.00;;
67768;SDS011;54569;52.018;5.584;2023-02-11T05:34:08;24.80;;;11.00;;
67768;SDS011;54569;52.018;5.584;2023-02-11T05:36:34;24.88;;;10.45;;
67768;SDS011;54569;52.018;5.584;2023-02-11T05:38:59;21.63;;;9.80;;
67768;SDS011;54569;52.018;5.584;2023-02-11T05:41:25;20.83;;;10.75;;
67768;SDS011;54569;52.018;5.584;2023-02-11T05:43:51;24.70;;;10.93;;
67768;SDS011;54569;52.018;5.584;2023-02-11T05:46:16;21.17;;;11.02;;
67768;SDS011;54569;52.018;5.584;2023-02-11T05:48:42;23.75;;;10.52;;
67768;SDS011;54569;52.018;5.584;2023-02-11T05:51:08;24.48;;;10.88;;
67768;SDS011;54569;52.018;5.584;2023-02-11T05:53:34;18.75;;;9.77;;
67768;SDS011;54569;52.018;5.584;2023-02-11T05:56:00;23.05;;;11.00;;
67768;SDS011;54569;52.018;5.584;2023-02-11T05:58:26;20.95;;;10.48;;
67768;SDS011;54569;52.018;5.584;2023-02-11T06:00:52;23.15;;;11.07;;
67768;SDS011;54569;52.018;5.584;2023-02-11T06:03:18;21.50;;;10.35;;
67768;SDS011;54569;52.018;5.584;2023-02-11T06:05:44;20.13;;;10.70;;
67768;SDS011;54569;52.018;5.584;2023-02-11T06:08:09;20.65;;;10.48;;
67768;SDS011;54569;52.018;5.584;2023-02-11T06:10:36;24.50;;;11.00;;
67768;SDS011;54569;52.018;5.584;2023-02-11T06:13:02;24.55;;;11.30;;
67768;SDS011;54569;52.018;5.584;2023-02-11T06:15:30;22.15;;;12.38;;
67768;SDS011;54569;52.018;5.584;2023-02-11T06:17:55;24.85;;;11.30;;
67768;SDS011;54569;52.018;5.584;2023-02-11T06:20:21;24.00;;;11.07;;
67768;SDS011;54569;52.018;5.584;2023-02-11T06:22:46;19.83;;;11.77;;
67768;SDS011;54569;52.018;5.584;2023-02-11T06:25:12;24.42;;;11.70;;
67768;SDS011;54569;52.018;5.584;2023-02-11T06:27:39;25.58;;;12.30;;
67768;SDS011;54569;52.018;5.584;2023-02-11T06:30:04;30.10;;;12.65;;
67768;SDS011;54569;52.018;5.584;2023-02-11T06:32:31;29.20;;;14.48;;
67768;SDS011;54569;52.018;5.584;2023-02-11T06:34:59;28.90;;;14.07;;
67768;SDS011;54569;52.018;5.584;2023-02-11T06:37:24;27.30;;;13.50;;
67768;SDS011;54569;52.018;5.584;2023-02-11T06:39:50;29.30;;;14.13;;
67768;SDS011;54569;52.018;5.584;2023-02-11T06:42:16;27.45;;;13.55;;
67768;SDS011;54569;52.018;5.584;2023-02-11T06:44:41;22.48;;;13.05;;
67768;SDS011;54569;52.018;5.584;2023-02-11T06:47:08;20.70;;;12.93;;
67768;SDS011;54569;52.018;5.584;2023-02-11T06:49:34;27.63;;;14.35;;
67768;SDS011;54569;52.018;5.584;2023-02-11T06:52:00;34.70;;;15.05;;
67768;SDS011;54569;52.018;5.584;2023-02-11T06:54:25;28.83;;;14.43;;
67768;SDS011;54569;52.018;5.584;2023-02-11T06:56:51;33.28;;;13.77;;
67768;SDS011;54569;52.018;5.584;2023-02-11T06:59:18;24.92;;;13.65;;
67768;SDS011;54569;52.018;5.584;2023-02-11T07:01:44;24.88;;;13.10;;
67768;SDS011;54569;52.018;5.584;2023-02-11T07:04:10;29.27;;;13.13;;
67768;SDS011;54569;52.018;5.584;2023-02-11T07:06:38;31.13;;;13.75;;
67768;SDS011;54569;52.018;5.584;2023-02-11T07:09:04;30.35;;;12.85;;
67768;SDS011;54569;52.018;5.584;2023-02-11T07:11:33;27.40;;;13.27;;
67768;SDS011;54569;52.018;5.584;2023-02-11T07:13:59;30.38;;;14.35;;
67768;SDS011;54569;52.018;5.584;2023-02-11T07:16:27;26.23;;;14.25;;
67768;SDS011;54569;52.018;5.584;2023-02-11T07:18:53;32.03;;;14.25;;
67768;SDS011;54569;52.018;5.584;2023-02-11T07:21:19;27.52;;;14.75;;
67768;SDS011;54569;52.018;5.584;2023-02-11T07:23:46;26.23;;;14.05;;
67768;SDS011;54569;52.018;5.584;2023-02-11T07:26:17;29.33;;;14.98;;
67768;SDS011;54569;52.018;5.584;2023-02-11T07:28:50;31.20;;;16.35;;
67768;SDS011;54569;52.018;5.584;2023-02-11T07:31:17;35.35;;;16.55;;
67768;SDS011;54569;52.018;5.584;2023-02-11T07:33:47;29.50;;;15.68;;
67768;SDS011;54569;52.018;5.584;2023-02-11T07:36:14;38.20;;;17.27;;
67768;SDS011;54569;52.018;5.584;2023-02-11T07:38:41;36.65;;;17.48;;
67768;SDS011;54569;52.018;5.584;2023-02-11T07:41:08;36.15;;;16.88;;
67768;SDS011;54569;52.018;5.584;2023-02-11T07:43:35;33.10;;;16.33;;
67768;SDS011;54569;52.018;5.584;2023-02-11T07:46:02;31.35;;;17.08;;
67768;SDS011;54569;52.018;5.584;2023-02-11T07:48:32;39.08;;;17.65;;
67768;SDS011;54569;52.018;5.584;2023-02-11T07:51:08;37.88;;;18.20;;
67768;SDS011;54569;52.018;5.584;2023-02-11T07:53:38;31.42;;;16.70;;
67768;SDS011;54569;52.018;5.584;2023-02-11T07:56:05;34.05;;;16.42;;
67768;SDS011;54569;52.018;5.584;2023-02-11T07:58:31;33.40;;;16.27;;
67768;SDS011;54569;52.018;5.584;2023-02-11T08:01:01;38.10;;;17.58;;
67768;SDS011;54569;52.018;5.584;2023-02-11T08:03:28;34.85;;;16.85;;
67768;SDS011;54569;52.018;5.584;2023-02-11T08:05:54;34.40;;;16.95;;
67768;SDS011;54569;52.018;5.584;2023-02-11T08:08:20;36.70;;;16.80;;
67768;SDS011;54569;52.018;5.584;2023-02-11T08:10:45;32.60;;;16.00;;
67768;SDS011;54569;52.018;5.584;2023-02-11T08:13:11;36.13;;;16.80;;
67768;SDS011;54569;52.018;5.584;2023-02-11T08:15:37;33.55;;;16.83;;
67768;SDS011;54569;52.018;5.584;2023-02-11T08:18:02;37.75;;;18.45;;
67768;SDS011;54569;52.018;5.584;2023-02-11T08:20:28;34.85;;;16.50;;
67768;SDS011;54569;52.018;5.584;2023-02-11T08:22:54;33.38;;;16.70;;
67768;SDS011;54569;52.018;5.584;2023-02-11T08:25:19;35.83;;;17.40;;
67768;SDS011;54569;52.018;5.584;2023-02-11T08:27:45;31.98;;;17.20;;
67768;SDS011;54569;52.018;5.584;2023-02-11T08:30:11;39.05;;;17.25;;
67768;SDS011;54569;52.018;5.584;2023-02-11T08:32:37;29.92;;;16.95;;
67768;SDS011;54569;52.018;5.584;2023-02-11T08:35:03;31.92;;;16.67;;
67768;SDS011;54569;52.018;5.584;2023-02-11T08:37:31;33.38;;;17.38;;
67768;SDS011;54569;52.018;5.584;2023-02-11T08:39:57;34.22;;;16.95;;
67768;SDS011;54569;52.018;5.584;2023-02-11T08:42:23;37.58;;;16.65;;
67768;SDS011;54569;52.018;5.584;2023-02-11T08:44:49;32.42;;;18.10;;
67768;SDS011;54569;52.018;5.584;2023-02-11T08:47:15;31.48;;;17.95;;
67768;SDS011;54569;52.018;5.584;2023-02-11T08:49:40;34.10;;;16.92;;
67768;SDS011;54569;52.018;5.584;2023-02-11T08:52:06;30.77;;;16.52;;
67768;SDS011;54569;52.018;5.584;2023-02-11T08:54:32;34.72;;;16.90;;
67768;SDS011;54569;52.018;5.584;2023-02-11T08:56:58;34.58;;;18.13;;
67768;SDS011;54569;52.018;5.584;2023-02-11T08:59:26;28.50;;;17.77;;
67768;SDS011;54569;52.018;5.584;2023-02-11T09:01:52;29.45;;;17.38;;
67768;SDS011;54569;52.018;5.584;2023-02-11T09:04:17;33.47;;;17.30;;
67768;SDS011;54569;52.018;5.584;2023-02-11T09:06:43;39.53;;;19.05;;
67768;SDS011;54569;52.018;5.584;2023-02-11T09:09:13;44.90;;;19.15;;
67768;SDS011;54569;52.018;5.584;2023-02-11T09:11:40;37.88;;;17.40;;
67768;SDS011;54569;52.018;5.584;2023-02-11T09:14:06;40.67;;;19.70;;
67768;SDS011;54569;52.018;5.584;2023-02-11T09:16:35;38.03;;;18.40;;
67768;SDS011;54569;52.018;5.584;2023-02-11T09:19:01;29.60;;;18.38;;
67768;SDS011;54569;52.018;5.584;2023-02-11T09:21:28;37.13;;;17.95;;
67768;SDS011;54569;52.018;5.584;2023-02-11T09:23:54;34.03;;;18.90;;
67768;SDS011;54569;52.018;5.584;2023-02-11T09:26:23;33.92;;;19.33;;
67768;SDS011;54569;52.018;5.584;2023-02-11T09:28:50;33.30;;;18.48;;
67768;SDS011;54569;52.018;5.584;2023-02-11T09:31:18;38.17;;;18.35;;
67768;SDS011;54569;52.018;5.584;2023-02-11T09:33:49;30.35;;;17.17;;
67768;SDS011;54569;52.018;5.584;2023-02-11T09:36:18;30.77;;;17.20;;
67768;SDS011;54569;52.018;5.584;2023-02-11T09:38:46;37.70;;;18.52;;
67768;SDS011;54569;52.018;5.584;2023-02-11T09:43:47;34.38;;;17.05;;
67768;SDS011;54569;52.018;5.584;2023-02-11T09:46:16;29.63;;;17.48;;
67768;SDS011;54569;52.018;5.584;2023-02-11T09:48:43;32.35;;;17.73;;
67768;SDS011;54569;52.018;5.584;2023-02-11T09:51:23;34.60;;;19.25;;
67768;SDS011;54569;52.018;5.584;2023-02-11T09:53:56;28.60;;;17.27;;
67768;SDS011;54569;52.018;5.584;2023-02-11T09:56:27;29.73;;;16.92;;
67768;SDS011;54569;52.018;5.584;2023-02-11T09:58:53;29.20;;;15.93;;
67768;SDS011;54569;52.018;5.584;2023-02-11T10:01:34;33.30;;;18.20;;
67768;SDS011;54569;52.018;5.584;2023-02-11T10:07:10;28.50;;;16.67;;
67768;SDS011;54569;52.018;5.584;2023-02-11T10:10:03;26.55;;;17.52;;
67768;SDS011;54569;52.018;5.584;2023-02-11T10:12:38;29.20;;;16.60;;
67768;SDS011;54569;52.018;5.584;2023-02-11T10:15:11;32.95;;;16.85;;
67768;SDS011;54569;52.018;5.584;2023-02-11T10:20:32;25.77;;;16.33;;
67768;SDS011;54569;52.018;5.584;2023-02-11T10:23:09;30.42;;;17.13;;
67768;SDS011;54569;52.018;5.584;2023-02-11T10:25:43;30.95;;;17.42;;
67768;SDS011;54569;52.018;5.584;2023-02-11T10:30:53;26.20;;;16.67;;
67768;SDS011;54569;52.018;5.584;2023-02-11T10:33:30;25.77;;;15.90;;
67768;SDS011;54569;52.018;5.584;2023-02-11T10:36:18;27.38;;;16.85;;
67768;SDS011;54569;52.018;5.584;2023-02-11T10:38:48;25.95;;;16.33;;
67768;SDS011;54569;52.018;5.584;2023-02-11T10:41:19;27.63;;;17.30;;
67768;SDS011;54569;52.018;5.584;2023-02-11T10:43:55;24.67;;;16.08;;
67768;SDS011;54569;52.018;5.584;2023-02-11T10:46:22;28.92;;;15.85;;
67768;SDS011;54569;52.018;5.584;2023-02-11T10:48:53;25.48;;;15.48;;
67768;SDS011;54569;52.018;5.584;2023-02-11T10:51:23;21.52;;;14.88;;
67768;SDS011;54569;52.018;5.584;2023-02-11T10:56:29;22.02;;;15.73;;
67768;SDS011;54569;52.018;5.584;2023-02-11T10:58:59;20.15;;;13.95;;
67768;SDS011;54569;52.018;5.584;2023-02-11T11:01:39;22.98;;;15.10;;
67768;SDS011;54569;52.018;5.584;2023-02-11T11:04:37;21.85;;;14.40;;
67768;SDS011;54569;52.018;5.584;2023-02-11T11:07:12;21.52;;;14.90;;
67768;SDS011;54569;52.018;5.584;2023-02-11T11:10:24;19.92;;;13.38;;
67768;SDS011;54569;52.018;5.584;2023-02-11T11:15:15;18.02;;;11.95;;
67768;SDS011;54569;52.018;5.584;2023-02-11T11:18:14;15.98;;;11.80;;
67768;SDS011;54569;52.018;5.584;2023-02-11T11:23:24;17.83;;;11.63;;
67768;SDS011;54569;52.018;5.584;2023-02-11T11:26:03;18.63;;;12.88;;
67768;SDS011;54569;52.018;5.584;2023-02-11T11:28:33;16.75;;;12.00;;
67768;SDS011;54569;52.018;5.584;2023-02-11T11:31:12;17.70;;;12.07;;
67768;SDS011;54569;52.018;5.584;2023-02-11T11:33:42;18.65;;;12.32;;
67768;SDS011;54569;52.018;5.584;2023-02-11T11:36:11;16.73;;;11.75;;
67768;SDS011;54569;52.018;5.584;2023-02-11T11:38:43;16.52;;;11.95;;
67768;SDS011;54569;52.018;5.584;2023-02-11T11:52:34;18.85;;;10.80;;
67768;SDS011;54569;52.018;5.584;2023-02-11T11:55:17;13.88;;;9.80;;
67768;SDS011;54569;52.018;5.584;2023-02-11T11:57:46;15.88;;;10.77;;
67768;SDS011;54569;52.018;5.584;2023-02-11T12:00:16;14.18;;;9.40;;
67768;SDS011;54569;52.018;5.584;2023-02-11T12:03:09;12.77;;;9.82;;
67768;SDS011;54569;52.018;5.584;2023-02-11T12:09:19;14.98;;;10.40;;
67768;SDS011;54569;52.018;5.584;2023-02-11T12:11:47;15.93;;;10.05;;
67768;SDS011;54569;52.018;5.584;2023-02-11T12:17:13;13.23;;;10.30;;
67768;SDS011;54569;52.018;5.584;2023-02-11T12:22:33;13.55;;;9.82;;
67768;SDS011;54569;52.018;5.584;2023-02-11T12:32:54;13.10;;;10.50;;
67768;SDS011;54569;52.018;5.584;2023-02-11T12:45:01;12.82;;;8.98;;
67768;SDS011;54569;52.018;5.584;2023-02-11T12:47:20;16.88;;;9.55;;
67768;SDS011;54569;52.018;5.584;2023-02-11T12:56:05;15.48;;;9.85;;
67768;SDS011;54569;52.018;5.584;2023-02-11T12:58:40;12.93;;;10.23;;
67768;SDS011;54569;52.018;5.584;2023-02-11T13:01:09;15.57;;;10.38;;
67768;SDS011;54569;52.018;5.584;2023-02-11T13:03:43;16.35;;;10.20;;
67768;SDS011;54569;52.018;5.584;2023-02-11T13:06:37;13.00;;;10.40;;
67768;SDS011;54569;52.018;5.584;2023-02-11T13:09:12;14.32;;;10.63;;
67768;SDS011;54569;52.018;5.584;2023-02-11T13:11:44;13.68;;;10.32;;
67768;SDS011;54569;52.018;5.584;2023-02-11T13:14:21;13.68;;;10.70;;
67768;SDS011;54569;52.018;5.584;2023-02-11T13:16:52;15.50;;;10.73;;
67768;SDS011;54569;52.018;5.584;2023-02-11T13:22:10;14.32;;;11.02;;
67768;SDS011;54569;52.018;5.584;2023-02-11T13:24:46;13.63;;;10.60;;
67768;SDS011;54569;52.018;5.584;2023-02-11T13:27:19;14.52;;;10.40;;
67768;SDS011;54569;52.018;5.584;2023-02-11T13:37:56;13.15;;;9.90;;
67768;SDS011;54569;52.018;5.584;2023-02-11T13:42:51;16.20;;;10.60;;
67768;SDS011;54569;52.018;5.584;2023-02-11T13:48:04;14.77;;;9.90;;
67768;SDS011;54569;52.018;5.584;2023-02-11T13:50:39;13.05;;;9.60;;
67768;SDS011;54569;52.018;5.584;2023-02-11T13:53:12;12.35;;;9.32;;
67768;SDS011;54569;52.018;5.584;2023-02-11T13:55:38;11.85;;;8.77;;
67768;SDS011;54569;52.018;5.584;2023-02-11T14:19:44;11.65;;;7.47;;
67768;SDS011;54569;52.018;5.584;2023-02-11T14:22:17;8.98;;;7.05;;
67768;SDS011;54569;52.018;5.584;2023-02-11T14:25:01;11.93;;;7.25;;
67768;SDS011;54569;52.018;5.584;2023-02-11T14:27:35;8.02;;;6.72;;
67768;SDS011;54569;52.018;5.584;2023-02-11T14:43:39;9.35;;;4.82;;
67768;SDS011;54569;52.018;5.584;2023-02-11T14:46:10;7.75;;;4.47;;
67768;SDS011;54569;52.018;5.584;2023-02-11T14:48:36;7.35;;;4.47;;
67768;SDS011;54569;52.018;5.584;2023-02-11T14:51:12;7.20;;;4.95;;
67768;SDS011;54569;52.018;5.584;2023-02-11T14:53:45;7.22;;;4.75;;
67768;SDS011;54569;52.018;5.584;2023-02-11T14:56:18;6.90;;;4.95;;
67768;SDS011;54569;52.018;5.584;2023-02-11T14:58:52;9.57;;;5.30;;
67768;SDS011;54569;52.018;5.584;2023-02-11T15:04:00;17.65;;;9.68;;
67768;SDS011;54569;52.018;5.584;2023-02-11T15:06:28;10.85;;;6.72;;
67768;SDS011;54569;52.018;5.584;2023-02-11T15:09:36;6.82;;;5.53;;
67768;SDS011;54569;52.018;5.584;2023-02-11T15:11:55;8.07;;;6.18;;
67768;SDS011;54569;52.018;5.584;2023-02-11T15:16:49;7.53;;;5.55;;
67768;SDS011;54569;52.018;5.584;2023-02-11T15:19:23;6.28;;;4.80;;
67768;SDS011;54569;52.018;5.584;2023-02-11T15:21:53;8.20;;;6.15;;
67768;SDS011;54569;52.018;5.584;2023-02-11T15:24:22;6.72;;;5.40;;
67768;SDS011;54569;52.018;5.584;2023-02-11T15:26:57;5.53;;;4.88;;
67768;SDS011;54569;52.018;5.584;2023-02-11T15:29:24;8.02;;;5.60;;
67768;SDS011;54569;52.018;5.584;2023-02-11T15:32:02;7.57;;;4.53;;
67768;SDS011;54569;52.018;5.584;2023-02-11T15:34:34;7.93;;;5.45;;
67768;SDS011;54569;52.018;5.584;2023-02-11T15:37:01;7.20;;;5.15;;
67768;SDS011;54569;52.018;5.584;2023-02-11T15:39:30;6.68;;;4.70;;
67768;SDS011;54569;52.018;5.584;2023-02-11T15:47:41;7.60;;;4.83;;
67768;SDS011;54569;52.018;5.584;2023-02-11T15:50:20;7.87;;;6.53;;
67768;SDS011;54569;52.018;5.584;2023-02-11T15:52:49;6.88;;;5.97;;
67768;SDS011;54569;52.018;5.584;2023-02-11T15:55:16;9.90;;;6.53;;
67768;SDS011;54569;52.018;5.584;2023-02-11T15:57:44;6.97;;;5.15;;
67768;SDS011;54569;52.018;5.584;2023-02-11T16:00:18;11.75;;;5.22;;
67768;SDS011;54569;52.018;5.584;2023-02-11T16:02:46;7.18;;;4.90;;
67768;SDS011;54569;52.018;5.584;2023-02-11T16:07:52;9.07;;;4.93;;
67768;SDS011;54569;52.018;5.584;2023-02-11T16:12:55;5.95;;;5.25;;
67768;SDS011;54569;52.018;5.584;2023-02-11T16:15:26;8.13;;;5.57;;
67768;SDS011;54569;52.018;5.584;2023-02-11T16:17:55;7.90;;;5.30;;
67768;SDS011;54569;52.018;5.584;2023-02-11T16:20:21;11.15;;;6.05;;
67768;SDS011;54569;52.018;5.584;2023-02-11T16:22:47;8.65;;;6.00;;
67768;SDS011;54569;52.018;5.584;2023-02-11T16:25:16;7.85;;;6.40;;
67768;SDS011;54569;52.018;5.584;2023-02-11T16:27:46;7.00;;;5.28;;
67768;SDS011;54569;52.018;5.584;2023-02-11T16:35:16;9.07;;;6.10;;
67768;SDS011;54569;52.018;5.584;2023-02-11T16:37:42;9.38;;;6.30;;
67768;SDS011;54569;52.018;5.584;2023-02-11T16:40:08;9.65;;;6.30;;
67768;SDS011;54569;52.018;5.584;2023-02-11T16:42:35;8.70;;;6.35;;
67768;SDS011;54569;52.018;5.584;2023-02-11T16:45:01;8.27;;;5.78;;
67768;SDS011;54569;52.018;5.584;2023-02-11T16:47:27;8.73;;;6.72;;
67768;SDS011;54569;52.018;5.584;2023-02-11T16:49:55;7.90;;;6.13;;
67768;SDS011;54569;52.018;5.584;2023-02-11T16:52:22;7.80;;;5.88;;
67768;SDS011;54569;52.018;5.584;2023-02-11T16:54:48;10.20;;;6.03;;
67768;SDS011;54569;52.018;5.584;2023-02-11T16:57:21;8.48;;;5.82;;
67768;SDS011;54569;52.018;5.584;2023-02-11T16:59:48;11.65;;;6.75;;
67768;SDS011;54569;52.018;5.584;2023-02-11T17:02:15;7.93;;;6.32;;
67768;SDS011;54569;52.018;5.584;2023-02-11T17:04:46;7.85;;;6.25;;
67768;SDS011;54569;52.018;5.584;2023-02-11T17:07:12;9.27;;;7.28;;
67768;SDS011;54569;52.018;5.584;2023-02-11T17:09:38;9.20;;;6.97;;
67768;SDS011;54569;52.018;5.584;2023-02-11T17:12:04;9.07;;;7.25;;
67768;SDS011;54569;52.018;5.584;2023-02-11T17:14:30;10.57;;;7.07;;
67768;SDS011;54569;52.018;5.584;2023-02-11T17:16:56;8.13;;;6.75;;
67768;SDS011;54569;52.018;5.584;2023-02-11T17:19:22;8.25;;;6.80;;
67768;SDS011;54569;52.018;5.584;2023-02-11T17:21:49;9.73;;;7.50;;
67768;SDS011;54569;52.018;5.584;2023-02-11T17:24:16;9.10;;;7.20;;
67768;SDS011;54569;52.018;5.584;2023-02-11T17:26:43;10.15;;;6.60;;
67768;SDS011;54569;52.018;5.584;2023-02-11T17:29:10;8.57;;;6.00;;
67768;SDS011;54569;52.018;5.584;2023-02-11T17:31:38;8.63;;;6.03;;